Oscar, Texas
Current Conditions -  °F | °C
As of 9:35 AM on Monday 22 Dec 2014 (Local Time) from KTPL Reporting Station
Clear Clear  
Wind Chill: 57°   Ceiling: Unl
Heat Index: 57°   Visibility: 10mi
Dew Point: 48°   Wind: 15mph
Humidity: 72%   Direction: 210°SSW
Pressure: 29.67"   Gusts: 22mph
Location:  31.0795°N, 97.3287°W
Report Text: KTPL 221535Z AUTO 21013G19KT 10SM CLR 14/09 A2967 RMK AO1
Loading
Personal Weather Stations






























Interactive Weather Map New forecast layout! Learn more

10-Day Weather Forecast

Advertisements
Track Severe Weather on mobile